Time;durP1;ratioP1;P1;durP2;ratioP2;P2;SDS_P1;SDS_P2;PMS_P1;PMS_P2;Temp;Humidity;BMP_temperature;BMP_pressure;BME280_temperature;BME280_humidity;BME280_pressure;Samples;Min_cycle;Max_cycle;Signal;HPM_P1;HPM_P2
2021/08/19 00:01:49;;;;;;;3.63;2.58;;;16.80;99.90;;;;;;6144483;28;20023;-81
2021/08/19 00:04:51;;;;;;;2.95;2.55;;;16.80;99.90;;;;;;6177287;28;20373;-80
2021/08/19 00:07:52;;;;;;;;;;;16.70;99.90;;;;;;6177601;28;20018;-83
2021/08/19 00:10:52;;;;;;;3.42;2.80;;;16.60;99.90;;;;;;6176425;28;19909;-81
2021/08/19 00:13:53;;;;;;;4.47;2.70;;;16.60;99.90;;;;;;6160119;28;20025;-80
2021/08/19 00:16:53;;;;;;;3.20;2.90;;;16.50;99.90;;;;;;6144063;28;20539;-83
2021/08/19 00:19:54;;;;;;;3.33;2.90;;;16.50;99.90;;;;;;6177090;28;20411;-80
2021/08/19 00:22:55;;;;;;;2.90;2.53;;;16.70;99.90;;;;;;6143801;28;20027;-80
2021/08/19 00:25:55;;;;;;;2.95;2.60;;;16.40;99.90;;;;;;6159970;28;20027;-80
2021/08/19 00:28:56;;;;;;;4.60;2.85;;;16.40;99.90;;;;;;6176991;28;20023;-83
2021/08/19 00:31:56;;;;;;;4.65;2.80;;;16.30;99.90;;;;;;6176928;28;20027;-80
2021/08/19 00:34:57;;;;;;;2.97;2.40;;;16.20;99.90;;;;;;6176859;28;20045;-80
2021/08/19 00:37:57;;;;;;;5.05;2.90;;;16.10;99.90;;;;;;6158840;28;20050;-79
2021/08/19 00:40:58;;;;;;;3.47;2.70;;;16.00;99.90;;;;;;6159242;28;20071;-79
2021/08/19 00:43:59;;;;;;;3.03;2.60;;;15.90;99.90;;;;;;6176752;28;20027;-82
2021/08/19 00:47:00;;;;;;;3.72;2.90;;;;;;;;;;6176412;28;20102;-80
2021/08/19 00:50:01;;;;;;;4.97;2.80;;;15.60;99.90;;;;;;6159423;28;20017;-80
2021/08/19 00:53:01;;;;;;;5.85;2.70;;;15.50;99.90;;;;;;6159372;28;20023;-80
2021/08/19 00:56:02;;;;;;;2.58;2.38;;;15.20;99.90;;;;;;6176398;28;20426;-79
2021/08/19 00:59:06;;;;;;;3.65;2.50;;;15.20;99.90;;;;;;6159086;28;20033;-82
2021/08/19 01:02:07;;;;;;;5.03;2.70;;;14.90;99.90;;;;;;6176121;28;20022;-79
2021/08/19 01:05:10;;;;;;;8.25;2.90;;;15.20;99.90;;;;;;6158773;28;20488;-79
2021/08/19 01:08:11;;;;;;;5.78;2.45;;;;;;;;;;6176022;28;20030;-82
2021/08/19 01:11:11;;;;;;;3.20;2.42;;;14.90;99.90;;;;;;6158649;28;20524;-81
2021/08/19 01:14:15;;;;;;;3.38;2.53;;;14.90;99.90;;;;;;6158751;28;20026;-80
2021/08/19 01:17:18;;;;;;;4.65;2.70;;;;;;;;;;6158975;28;20039;-79
2021/08/19 01:20:18;;;;;;;3.88;3.03;;;;;;;;;;6175513;28;20023;-80
2021/08/19 01:23:19;;;;;;;3.55;2.55;;;;;;;;;;6158322;28;20042;-80
2021/08/19 01:26:20;;;;;;;3.30;2.80;;;14.90;99.90;;;;;;6175554;28;20018;-81
2021/08/19 01:29:21;;;;;;;3.75;2.63;;;15.00;99.90;;;;;;6158466;28;20029;-79
2021/08/19 01:32:22;;;;;;;3.95;2.60;;;15.10;99.90;;;;;;6158545;28;20025;-81
2021/08/19 01:35:25;;;;;;;4.67;2.93;;;14.90;99.90;;;;;;6175802;28;20026;-81
2021/08/19 01:38:34;;;;;;;4.15;2.90;;;15.00;99.90;;;;;;6175341;28;20560;-82
2021/08/19 01:41:34;;;;;;;4.68;2.90;;;15.00;99.90;;;;;;6158566;28;20377;-81
2021/08/19 01:44:35;;;;;;;4.10;3.05;;;15.10;99.90;;;;;;6175128;28;20059;-79
2021/08/19 01:47:36;;;;;;;3.70;3.22;;;15.10;99.90;;;;;;6175346;28;20054;-80
2021/08/19 01:50:36;;;;;;;3.70;2.88;;;15.20;99.90;;;;;;6175049;28;20360;-84
2021/08/19 01:53:38;;;;;;;3.30;2.90;;;15.00;99.90;;;;;;6175360;28;20026;-81
2021/08/19 01:56:39;;;;;;;4.90;2.83;;;15.10;99.90;;;;;;6174789;28;20035;-84
2021/08/19 01:59:39;;;;;;;3.25;2.92;;;15.10;99.90;;;;;;6174889;28;20597;-79
2021/08/19 02:02:40;;;;;;;5.32;3.08;;;;;;;;;;6175156;28;20023;-80
2021/08/19 02:05:41;;;;;;;3.92;3.10;;;15.10;99.90;;;;;;6157786;28;20022;-80
2021/08/19 02:08:41;;;;;;;3.42;2.85;;;15.10;99.90;;;;;;6174749;28;20027;-82
2021/08/19 02:11:42;;;;;;;3.22;2.85;;;15.10;99.90;;;;;;6174580;28;20047;-80
2021/08/19 02:14:43;;;;;;;3.78;2.80;;;15.10;99.90;;;;;;6174896;28;20058;-80
2021/08/19 02:17:43;;;;;;;3.95;2.78;;;15.10;99.90;;;;;;6157558;28;20035;-83
2021/08/19 02:20:44;;;;;;;3.63;3.03;;;15.10;99.90;;;;;;6175017;28;20019;-83
2021/08/19 02:23:44;;;;;;;3.60;2.70;;;15.00;99.90;;;;;;6174640;28;20069;-79
2021/08/19 02:26:45;;;;;;;6.65;3.13;;;15.00;99.90;;;;;;6157274;28;20050;-79
2021/08/19 02:29:45;;;;;;;4.40;3.08;;;15.20;99.90;;;;;;6174559;28;20031;-81
2021/08/19 02:32:52;;;;;;;3.30;2.80;;;15.20;99.90;;;;;;6176984;28;20101;-83
2021/08/19 02:35:53;;;;;;;3.25;2.95;;;15.30;99.90;;;;;;6163212;28;20441;-82
2021/08/19 02:38:53;;;;;;;5.90;3.25;;;15.20;99.90;;;;;;6179043;28;20130;-82
2021/08/19 02:41:54;;;;;;;3.65;2.72;;;15.10;99.90;;;;;;6179309;28;20050;-81
2021/08/19 02:44:55;;;;;;;7.72;5.95;;;15.50;99.90;;;;;;6179146;28;20054;-80
2021/08/19 02:47:55;;;;;;;7.97;6.05;;;15.50;99.90;;;;;;6162134;28;20022;-78
2021/08/19 02:50:56;;;;;;;7.63;3.28;;;15.20;99.90;;;;;;6161746;28;20026;-80
2021/08/19 02:53:56;;;;;;;4.53;3.13;;;15.20;99.90;;;;;;6178973;28;20030;-79
2021/08/19 02:56:57;;;;;;;5.07;3.30;;;15.20;99.90;;;;;;6178875;28;20364;-79
2021/08/19 02:59:57;;;;;;;3.47;3.00;;;15.10;99.90;;;;;;6161876;28;20027;-83
2021/08/19 03:02:58;;;;;;;4.45;2.75;;;15.10;99.90;;;;;;6179121;28;20027;-79
2021/08/19 03:05:59;;;;;;;5.00;3.03;;;15.20;99.90;;;;;;6161486;28;20023;-79
2021/08/19 03:08:59;;;;;;;4.63;3.05;;;15.10;99.90;;;;;;6178941;28;20018;-83
2021/08/19 03:12:00;;;;;;;3.78;2.75;;;;;;;;;;6178526;28;20098;-79
2021/08/19 03:15:01;;;;;;;4.22;3.75;;;15.10;99.90;;;;;;6178504;28;20082;-83
2021/08/19 03:18:02;;;;;;;5.18;3.33;;;15.10;99.90;;;;;;6161200;28;20377;-82
2021/08/19 03:21:03;;;;;;;5.45;3.90;;;15.10;99.90;;;;;;6161505;28;20018;-82
2021/08/19 03:24:04;;;;;;;4.38;3.40;;;15.10;99.90;;;;;;6178706;28;20019;-78
2021/08/19 03:27:05;;;;;;;4.15;3.47;;;15.10;99.90;;;;;;6178597;28;20114;-81
2021/08/19 03:30:06;;;;;;;7.40;3.20;;;15.10;99.90;;;;;;6178125;28;20765;-80
2021/08/19 03:33:07;;;;;;;3.50;3.00;;;15.10;99.90;;;;;;6178023;28;20031;-80
2021/08/19 03:36:07;;;;;;;5.30;3.78;;;15.10;99.90;;;;;;6161174;28;20030;-79
2021/08/19 03:39:08;;;;;;;6.40;3.78;;;15.10;99.90;;;;;;6160839;28;20054;-80
2021/08/19 03:42:08;;;;;;;5.00;3.65;;;15.40;99.90;;;;;;6177876;28;20030;-83
2021/08/19 03:45:09;;;;;;;3.40;3.10;;;15.10;99.90;;;;;;6177877;28;20360;-82
2021/08/19 03:48:10;;;;;;;5.72;3.53;;;15.10;99.90;;;;;;6178055;28;20030;-83
2021/08/19 03:51:10;;;;;;;8.43;5.30;;;15.10;99.90;;;;;;6178040;28;20536;-82
2021/08/19 03:54:12;;;;;;;11.18;8.05;;;15.20;99.90;;;;;;6161128;28;20027;-80
2021/08/19 03:57:12;;;;;;;9.45;8.10;;;15.20;99.90;;;;;;6177617;28;20026;-80
2021/08/19 04:00:13;;;;;;;6.10;4.38;;;15.30;99.90;;;;;;6160235;28;20038;-79
2021/08/19 04:03:14;;;;;;;4.43;3.10;;;15.20;99.90;;;;;;6177475;28;20030;-79
2021/08/19 04:06:15;;;;;;;3.40;3.10;;;15.40;99.90;;;;;;6160429;28;20037;-82
2021/08/19 04:09:16;;;;;;;3.65;3.10;;;15.20;99.90;;;;;;6177327;28;20027;-81
2021/08/19 04:12:16;;;;;;;3.78;3.10;;;15.10;99.90;;;;;;6160277;28;20023;-80
2021/08/19 04:15:17;;;;;;;3.55;3.10;;;;;;;;;;6177310;28;20519;-83
2021/08/19 04:18:19;;;;;;;4.55;3.63;;;15.30;99.90;;;;;;6177053;28;20042;-79
2021/08/19 04:21:19;;;;;;;3.88;3.15;;;15.20;99.90;;;;;;6177460;28;20364;-83
2021/08/19 04:24:20;;;;;;;5.15;3.45;;;15.50;99.90;;;;;;6143923;28;20030;-80
2021/08/19 04:27:20;;;;;;;4.13;3.30;;;15.30;99.90;;;;;;6177290;28;20027;-80
2021/08/19 04:30:22;;;;;;;4.40;3.78;;;15.40;99.90;;;;;;6143439;28;20448;-80
2021/08/19 04:33:26;;;;;;;3.97;3.57;;;15.30;99.90;;;;;;6143652;28;20058;-83
2021/08/19 04:36:27;;;;;;;5.88;3.63;;;15.40;99.90;;;;;;6176696;28;20027;-80
2021/08/19 04:39:27;;;;;;;4.10;3.70;;;15.40;99.90;;;;;;6176829;28;20030;-82
2021/08/19 04:42:28;;;;;;;4.68;3.88;;;15.10;99.90;;;;;;6159669;28;20027;-82
2021/08/19 04:45:29;;;;;;;4.97;4.28;;;15.20;99.90;;;;;;6177097;28;20358;-81
2021/08/19 04:48:29;;;;;;;6.47;4.00;;;15.30;99.90;;;;;;6159128;28;20041;-79
2021/08/19 04:51:30;;;;;;;5.32;4.55;;;15.50;99.90;;;;;;6176638;28;20398;-80
2021/08/19 04:54:31;;;;;;;4.82;3.67;;;15.20;99.90;;;;;;6176064;28;20027;-83
2021/08/19 04:57:31;;;;;;;5.47;3.92;;;15.20;99.90;;;;;;6159022;28;20030;-83
2021/08/19 05:00:32;;;;;;;4.45;3.60;;;15.20;99.90;;;;;;6158997;28;20037;-79
2021/08/19 05:03:32;;;;;;;4.38;3.30;;;15.20;99.90;;;;;;6142851;28;20058;-82
2021/08/19 05:06:33;;;;;;;4.78;3.17;;;15.30;99.90;;;;;;6142692;28;20030;-79
2021/08/19 05:09:34;;;;;;;5.30;4.03;;;15.30;99.90;;;;;;6159109;28;20515;-82
2021/08/19 05:12:35;;;;;;;4.03;3.63;;;;;;;;;;6176176;28;20409;-81
2021/08/19 05:15:35;;;;;;;4.55;3.90;;;15.40;99.90;;;;;;6176021;28;20050;-81
2021/08/19 05:18:38;;;;;;;4.10;3.50;;;;;;;;;;6175878;28;20034;-81
2021/08/19 05:21:40;;;;;;;4.18;3.78;;;15.40;99.90;;;;;;6176044;28;20019;-82
2021/08/19 05:24:41;;;;;;;5.40;3.60;;;;;;;;;;6175842;28;20361;-80
2021/08/19 05:27:42;;;;;;;4.35;3.10;;;;;;;;;;6158390;28;20019;-81
2021/08/19 05:30:43;;;;;;;5.43;3.22;;;;;;;;;;6175743;28;20019;-80
2021/08/19 05:33:44;;;;;;;3.63;3.17;;;;;;;;;;6175747;28;20093;-79
2021/08/19 05:36:44;;;;;;;4.25;3.42;;;15.60;99.90;;;;;;6175479;28;20054;-80
2021/08/19 05:39:45;;;;;;;3.85;3.13;;;15.60;99.90;;;;;;6175502;28;20066;-80
2021/08/19 05:42:45;;;;;;;3.95;2.80;;;15.60;99.90;;;;;;6175659;28;20034;-82
2021/08/19 05:45:46;;;;;;;4.88;3.10;;;15.60;99.90;;;;;;6175449;28;20030;-83
2021/08/19 05:48:46;;;;;;;4.72;3.10;;;15.80;99.90;;;;;;6158080;28;20720;-84
2021/08/19 05:51:47;;;;;;;4.35;2.97;;;15.70;99.90;;;;;;6158507;28;20049;-83
2021/08/19 05:54:48;;;;;;;4.35;2.90;;;15.60;99.90;;;;;;6174936;28;20026;-80
2021/08/19 05:57:51;;;;;;;6.35;3.25;;;15.80;99.90;;;;;;6157740;28;20050;-80
2021/08/19 06:00:51;;;;;;;3.58;3.28;;;15.60;99.90;;;;;;6157906;28;20025;-81
2021/08/19 06:03:52;;;;;;;5.03;3.03;;;15.90;99.90;;;;;;6141964;28;20030;-83
2021/08/19 06:06:52;;;;;;;5.05;3.00;;;15.80;99.90;;;;;;6156583;28;20034;-80
2021/08/19 06:09:53;;;;;;;4.13;3.38;;;15.60;99.90;;;;;;6175157;28;20366;-79
2021/08/19 06:12:53;;;;;;;4.10;3.50;;;15.70;99.90;;;;;;6157429;28;20023;-82
2021/08/19 06:15:54;;;;;;;3.92;3.20;;;15.70;99.90;;;;;;6157427;28;20023;-80
2021/08/19 06:18:56;;;;;;;4.65;3.13;;;15.80;99.90;;;;;;6174614;28;20031;-83
2021/08/19 06:21:57;;;;;;;3.85;3.00;;;15.80;99.90;;;;;;6158016;28;20026;-80
2021/08/19 06:24:57;;;;;;;3.65;3.10;;;15.80;99.90;;;;;;6174672;28;20034;-80
2021/08/19 06:27:58;;;;;;;2.97;2.58;;;15.90;99.90;;;;;;6174562;28;20063;-80
2021/08/19 06:30:58;;;;;;;4.13;3.15;;;15.90;99.90;;;;;;6175225;28;20034;-80
2021/08/19 06:33:59;;;;;;;3.05;2.60;;;16.00;99.90;;;;;;6157415;28;20038;-83
2021/08/19 06:37:00;;;;;;;3.30;3.00;;;16.00;99.90;;;;;;6174431;28;20053;-80
2021/08/19 06:40:00;;;;;;;3.80;3.40;;;16.10;99.90;;;;;;6157219;28;20045;-81
2021/08/19 06:43:01;;;;;;;11.43;9.02;;;16.20;99.90;;;;;;6174779;28;20037;-80
2021/08/19 06:46:01;;;;;;;6.13;5.07;;;16.20;99.90;;;;;;6141313;28;20027;-80
2021/08/19 06:49:02;;;;;;;4.40;2.88;;;16.30;99.90;;;;;;6141350;28;20030;-81
2021/08/19 06:52:03;;;;;;;2.53;2.33;;;16.40;99.90;;;;;;6157450;28;20019;-81
2021/08/19 06:55:04;;;;;;;3.70;2.30;;;16.50;99.90;;;;;;6174463;28;20035;-81
2021/08/19 06:58:05;;;;;;;2.50;2.13;;;16.60;99.90;;;;;;6156976;28;20066;-80
2021/08/19 07:01:05;;;;;;;2.40;2.10;;;16.50;99.90;;;;;;6174281;28;20031;-80
2021/08/19 07:04:06;;;;;;;4.22;2.25;;;16.70;99.90;;;;;;6174171;28;20479;-82
2021/08/19 07:07:06;;;;;;;2.70;2.40;;;17.00;99.90;;;;;;6174027;28;20027;-83
2021/08/19 07:10:08;;;;;;;3.97;2.40;;;16.80;99.90;;;;;;6157240;28;20023;-82
2021/08/19 07:13:08;;;;;;;2.20;2.00;;;17.10;99.90;;;;;;6141017;28;20062;-79
2021/08/19 07:16:09;;;;;;;3.47;2.20;;;17.00;99.90;;;;;;6141079;28;20025;-81
2021/08/19 07:19:10;;;;;;;2.40;2.20;;;17.20;99.90;;;;;;6176757;28;20035;-80
2021/08/19 07:22:10;;;;;;;2.47;2.13;;;17.30;99.90;;;;;;6178240;28;20027;-80
2021/08/19 07:25:14;;;;;;;4.75;2.45;;;17.40;99.90;;;;;;6161197;28;20023;-80
2021/08/19 07:28:15;;;;;;;2.20;2.00;;;17.50;99.90;;;;;;6178680;28;20026;-81
2021/08/19 07:31:16;;;;;;;2.80;2.10;;;17.50;99.90;;;;;;6178520;28;20082;-82
2021/08/19 07:34:16;;;;;;;7.55;4.25;;;17.60;99.90;;;;;;6178116;28;20015;-81
2021/08/19 07:37:17;;;;;;;4.07;2.90;;;17.70;99.90;;;;;;6160476;28;20055;-82
2021/08/19 07:40:19;;;;;;;3.20;2.13;;;17.70;99.90;;;;;;6160768;28;20110;-82
2021/08/19 07:43:19;;;;;;;1.90;1.70;;;17.90;99.90;;;;;;6160716;28;20027;-84
2021/08/19 07:46:20;;;;;;;3.67;1.92;;;17.90;99.90;;;;;;6160561;28;20086;-83
2021/08/19 07:49:21;;;;;;;1.95;1.70;;;17.90;99.90;;;;;;6144548;28;20055;-81
2021/08/19 07:52:21;;;;;;;1.73;1.60;;;18.10;99.90;;;;;;6160671;28;20049;-83
2021/08/19 07:55:22;;;;;;;1.63;1.52;;;18.20;99.90;;;;;;6144337;28;20030;-82
2021/08/19 07:58:23;;;;;;;1.80;1.70;;;18.30;99.90;;;;;;6177450;28;20042;-80
2021/08/19 08:01:23;;;;;;;1.70;1.60;;;18.50;99.90;;;;;;6177562;28;20026;-80
2021/08/19 08:04:24;;;;;;;2.05;1.85;;;18.80;99.90;;;;;;6160250;28;20242;-83
2021/08/19 08:07:25;;;;;;;2.63;1.92;;;19.00;99.90;;;;;;6177290;28;20069;-83
2021/08/19 08:10:26;;;;;;;2.83;1.65;;;19.10;99.90;;;;;;6177829;28;20030;-80
2021/08/19 08:13:26;;;;;;;1.75;1.65;;;19.30;99.90;;;;;;6177404;28;20022;-80
2021/08/19 08:16:27;;;;;;;2.00;1.90;;;19.40;99.90;;;;;;6177221;28;20058;-79
2021/08/19 08:19:27;;;;;;;2.38;2.10;;;19.60;99.90;;;;;;6177392;28;20085;-84
2021/08/19 08:22:28;;;;;;;3.03;2.50;;;20.00;99.90;;;;;;6159789;28;20114;-81
2021/08/19 08:25:29;;;;;;;2.83;1.95;;;20.10;99.90;;;;;;6160045;28;20054;-79
2021/08/19 08:28:32;;;;;;;3.50;1.90;;;20.20;99.90;;;;;;6176937;28;20468;-82
2021/08/19 08:31:33;;;;;;;1.85;1.73;;;20.40;99.90;;;;;;6158976;28;20031;-82
2021/08/19 08:34:34;;;;;;;2.33;1.92;;;20.70;99.90;;;;;;6160331;28;20066;-83
2021/08/19 08:37:35;;;;;;;2.40;1.95;;;;;;;;;;6159260;28;20054;-80
2021/08/19 08:40:37;;;;;;;2.20;1.75;;;21.10;99.90;;;;;;6176626;28;20033;-82
2021/08/19 08:43:38;;;;;;;;;;;21.00;99.90;;;;;;6177357;28;20030;-81
2021/08/19 08:46:38;;;;;;;1.95;1.73;;;21.50;99.90;;;;;;6159491;28;19902;-80
2021/08/19 08:49:40;;;;;;;6.13;2.00;;;21.90;99.90;;;;;;6159012;28;20015;-79
2021/08/19 08:52:42;;;;;;;3.92;2.20;;;;;;;;;;6159466;28;20105;-80
2021/08/19 08:55:43;;;;;;;2.60;2.10;;;21.90;99.90;;;;;;6176153;28;20446;-79
2021/08/19 08:58:43;;;;;;;2.60;2.30;;;22.20;99.90;;;;;;6176149;28;20045;-81
2021/08/19 09:01:44;;;;;;;1.80;1.70;;;22.40;99.90;;;;;;6176354;28;20805;-81
2021/08/19 09:04:44;;;;;;;3.15;2.60;;;22.70;99.90;;;;;;6176435;28;20031;-83
2021/08/19 09:07:51;;;;;;;2.20;2.00;;;23.00;99.10;;;;;;6175927;28;20468;-80
2021/08/19 09:10:55;;;;;;;2.35;2.03;;;23.30;97.20;;;;;;6143669;28;20022;-83
2021/08/19 09:13:56;;;;;;;3.22;1.90;;;23.70;97.80;;;;;;6175962;28;20484;-79
2021/08/19 09:16:56;;;;;;;1.80;1.65;;;23.90;96.70;;;;;;6158146;28;20061;-82
2021/08/19 09:20:07;;;;;;;2.13;1.80;;;24.10;95.30;;;;;;6158527;28;20031;-81
2021/08/19 09:23:09;;;;;;;1.60;1.50;;;24.40;92.50;;;;;;6175614;28;20475;-86
2021/08/19 09:26:10;;;;;;;1.67;1.58;;;24.60;99.10;;;;;;6158792;28;20120;-83
2021/08/19 09:29:12;;;;;;;1.10;1.10;;;24.60;91.90;;;;;;6158279;28;20461;-82
2021/08/19 09:32:17;;;;;;;2.17;1.60;;;24.80;92.90;;;;;;6175656;28;20035;-79
2021/08/19 09:35:17;;;;;;;3.38;2.30;;;24.70;90.60;;;;;;6142721;28;20030;-80
2021/08/19 09:38:23;;;;;;;1.97;1.77;;;25.30;91.00;;;;;;6125876;29;20147;-83
2021/08/19 09:41:24;;;;;;;2.00;1.90;;;25.40;83.80;;;;;;6126420;29;20023;-82
2021/08/19 09:44:29;;;;;;;1.63;1.53;;;25.80;87.80;;;;;;6128059;29;20047;-81
2021/08/19 09:47:34;;;;;;;1.75;1.65;;;26.10;85.00;;;;;;6126625;29;20035;-82
2021/08/19 09:50:34;;;;;;;2.45;2.17;;;26.00;87.40;;;;;;6126220;29;20027;-84
2021/08/19 09:53:41;;;;;;;2.00;1.80;;;26.00;87.70;;;;;;6126151;29;20055;-82
2021/08/19 09:56:42;;;;;;;1.92;1.75;;;26.10;86.50;;;;;;6126276;29;20028;-83
2021/08/19 09:59:44;;;;;;;1.77;1.67;;;26.10;84.50;;;;;;6126367;29;20032;-82
2021/08/19 10:02:44;;;;;;;1.70;1.60;;;26.00;80.90;;;;;;6127208;29;20026;-80
2021/08/19 10:05:45;;;;;;;2.33;2.07;;;26.00;85.90;;;;;;6126225;29;20031;-80
2021/08/19 10:08:45;;;;;;;2.47;2.17;;;26.00;87.30;;;;;;6126245;29;20030;-82
2021/08/19 10:11:47;;;;;;;4.77;2.50;;;25.90;87.20;;;;;;6126137;29;20055;-80
2021/08/19 10:14:48;;;;;;;2.70;1.90;;;25.70;86.30;;;;;;6127260;29;20083;-81
2021/08/19 10:17:53;;;;;;;3.10;2.17;;;25.60;85.80;;;;;;6110016;29;20051;-82
2021/08/19 10:21:07;;;;;;;3.03;2.00;;;25.30;86.80;;;;;;6125687;29;20030;-81
2021/08/19 10:24:07;;;;;;;2.58;2.20;;;25.10;85.50;;;;;;6125739;29;20027;-81
2021/08/19 10:27:20;;;;;;;2.37;2.17;;;25.00;86.80;;;;;;6125690;29;20038;-81
2021/08/19 10:30:22;;;;;;;2.15;1.90;;;24.90;93.90;;;;;;6126847;29;20054;-84
2021/08/19 10:33:38;;;;;;;2.03;1.92;;;25.00;85.20;;;;;;6125836;29;20031;-80
2021/08/19 10:36:38;;;;;;;2.83;2.30;;;25.60;84.50;;;;;;6130784;28;20331;-81
2021/08/19 10:39:39;;;;;;;2.83;2.30;;;26.00;84.40;;;;;;6174762;28;20031;-80
2021/08/19 10:42:39;;;;;;;2.37;2.10;;;26.30;81.40;;;;;;6175088;28;20027;-79
2021/08/19 10:45:41;;;;;;;4.13;2.37;;;26.20;93.20;;;;;;6174619;28;20023;-80
2021/08/19 10:48:47;;;;;;;2.20;2.00;;;26.30;83.10;;;;;;6157540;28;20078;-80
2021/08/19 10:51:47;;;;;;;2.15;2.00;;;26.50;94.40;;;;;;6174609;28;20460;-80
2021/08/19 10:54:50;;;;;;;2.80;2.23;;;26.50;98.80;;;;;;6160561;28;20023;-83
2021/08/19 10:57:55;;;;;;;2.60;2.30;;;26.30;91.20;;;;;;6162128;28;20034;-79
2021/08/19 11:01:22;;;;;;;2.15;2.03;;;26.10;99.40;;;;;;6178867;28;20031;-78
2021/08/19 11:04:41;;;;;;;2.40;2.20;;;25.70;98.00;;;;;;6178916;28;20454;-79
2021/08/19 11:07:50;;;;;;;3.03;2.20;;;25.90;81.40;;;;;;6178918;28;20018;-80
2021/08/19 11:10:53;;;;;;;3.33;2.80;;;26.10;82.90;;;;;;6178952;28;20039;-78
2021/08/19 11:14:00;;;;;;;2.72;2.20;;;25.90;80.50;;;;;;6178672;28;20030;-80
2021/08/19 11:17:01;;;;;;;3.40;2.47;;;25.70;81.30;;;;;;6178775;28;20030;-82
2021/08/19 11:20:23;;;;;;;2.40;2.10;;;25.60;82.70;;;;;;6178774;28;20027;-81
2021/08/19 11:23:50;;;;;;;2.30;2.10;;;25.60;80.10;;;;;;6178476;28;20098;-83
2021/08/19 11:27:04;;;;;;;4.13;2.65;;;26.10;79.00;;;;;;6175433;28;20054;-81
2021/08/19 11:30:05;;;;;;;3.03;2.40;;;25.30;75.40;;;;;;6160989;28;20469;-82
2021/08/19 11:33:13;;;;;;;5.00;2.60;;;25.10;81.90;;;;;;6161006;28;20023;-80
2021/08/19 11:36:15;;;;;;;2.47;2.28;;;25.50;87.60;;;;;;6177965;28;20022;-79
2021/08/19 11:39:15;;;;;;;2.55;2.35;;;25.40;86.30;;;;;;6160642;28;20051;-81
2021/08/19 11:42:29;;;;;;;3.47;2.60;;;25.40;85.50;;;;;;6161005;28;20350;-80
2021/08/19 11:45:29;;;;;;;2.72;2.53;;;25.20;86.70;;;;;;6161924;28;20471;-78
2021/08/19 11:48:30;;;;;;;3.90;2.27;;;25.30;88.40;;;;;;6178053;28;20023;-80
2021/08/19 11:51:32;;;;;;;2.80;2.50;;;25.60;85.40;;;;;;6160764;28;20083;-79
2021/08/19 11:54:46;;;;;;;7.90;2.75;;;25.70;85.70;;;;;;6177760;28;20023;-79
2021/08/19 11:57:47;;;;;;;2.38;2.17;;;25.70;83.60;;;;;;6160670;28;20031;-80
2021/08/19 12:01:10;;;;;;;3.17;2.30;;;26.20;83.20;;;;;;6160663;28;20073;-79
2021/08/19 12:04:11;;;;;;;3.65;2.20;;;26.30;80.30;;;;;;6177849;28;20097;-80
2021/08/19 12:07:13;;;;;;;2.35;2.15;;;26.60;77.30;;;;;;6160577;28;20484;-80
2021/08/19 12:10:14;;;;;;;2.60;2.40;;;26.80;83.00;;;;;;6160755;28;20027;-82
2021/08/19 12:13:14;;;;;;;2.83;2.33;;;26.90;83.00;;;;;;6160153;28;20100;-79
2021/08/19 12:16:19;;;;;;;3.23;2.40;;;26.80;81.10;;;;;;6160576;28;20034;-79
2021/08/19 12:19:21;;;;;;;3.72;2.70;;;26.60;83.80;;;;;;6160396;28;20077;-80
2021/08/19 12:22:23;;;;;;;2.60;2.40;;;26.70;82.10;;;;;;6177425;28;20027;-79
2021/08/19 12:25:25;;;;;;;3.00;2.45;;;27.00;99.20;;;;;;6177246;28;20073;-80
2021/08/19 12:28:26;;;;;;;5.07;2.60;;;27.10;98.70;;;;;;6143834;28;20066;-81
2021/08/19 12:31:49;;;;;;;5.80;3.03;;;27.50;99.60;;;;;;6176966;28;20106;-79
2021/08/19 12:35:11;;;;;;;2.30;2.10;;;26.80;98.50;;;;;;6159890;28;20023;-82
2021/08/19 12:38:11;;;;;;;2.60;2.35;;;26.60;98.10;;;;;;6176827;28;20109;-79
2021/08/19 12:41:19;;;;;;;3.17;2.50;;;25.70;93.50;;;;;;6159419;28;20031;-83
2021/08/19 12:44:21;;;;;;;2.70;2.50;;;25.20;99.90;;;;;;6159757;28;20353;-79
2021/08/19 12:47:34;;;;;;;2.85;2.50;;;24.60;99.90;;;;;;6159701;28;20368;-82
2021/08/19 12:50:35;;;;;;;4.45;2.90;;;;;;;;;;6176723;28;20026;-80
2021/08/19 12:53:36;;;;;;;3.03;2.40;;;;;;;;;;6176674;28;20330;-79
2021/08/19 12:56:37;;;;;;;4.90;2.63;;;23.90;94.10;;;;;;6159066;28;20026;-79
2021/08/19 12:59:39;;;;;;;2.92;2.50;;;23.50;91.80;;;;;;6176410;28;20058;-81
2021/08/19 13:02:40;;;;;;;2.83;2.50;;;23.20;92.30;;;;;;6158882;28;20117;-80
2021/08/19 13:05:41;;;;;;;2.83;2.50;;;23.10;92.80;;;;;;6158847;28;20056;-79
2021/08/19 13:08:41;;;;;;;4.20;2.60;;;23.00;93.80;;;;;;6176001;28;20030;-80
2021/08/19 13:11:42;;;;;;;3.00;2.30;;;22.90;93.30;;;;;;6158695;28;20027;-78
2021/08/19 13:14:43;;;;;;;2.83;2.47;;;22.80;93.40;;;;;;6158906;28;20110;-79
2021/08/19 13:17:44;;;;;;;2.63;2.42;;;22.90;93.80;;;;;;6175328;28;20026;-80
2021/08/19 13:20:45;;;;;;;4.47;2.70;;;23.00;93.90;;;;;;6176040;28;20058;-80
2021/08/19 13:23:46;;;;;;;2.97;2.55;;;23.20;93.70;;;;;;6176146;28;20406;-82
2021/08/19 13:26:46;;;;;;;4.97;2.63;;;23.30;93.20;;;;;;6158256;28;20046;-78
2021/08/19 13:29:47;;;;;;;3.80;2.75;;;23.40;99.70;;;;;;6175793;28;20022;-80
2021/08/19 13:32:48;;;;;;;2.90;2.60;;;23.50;93.10;;;;;;6175786;28;20106;-79
2021/08/19 13:35:48;;;;;;;3.58;2.92;;;23.60;92.70;;;;;;6175469;28;20023;-78
2021/08/19 13:38:49;;;;;;;4.80;2.90;;;23.70;92.70;;;;;;6174958;28;20401;-81
2021/08/19 13:41:49;;;;;;;2.90;2.42;;;23.80;92.00;;;;;;6158060;28;20062;-82
2021/08/19 13:44:50;;;;;;;5.77;2.70;;;24.00;91.80;;;;;;6158228;28;20030;-79
2021/08/19 13:47:51;;;;;;;2.80;2.47;;;23.80;91.30;;;;;;6158640;28;20026;-81
2021/08/19 13:50:51;;;;;;;3.90;2.43;;;24.10;91.30;;;;;;6158159;28;20022;-82
2021/08/19 13:53:52;;;;;;;3.95;3.00;;;24.20;91.00;;;;;;6175207;28;20024;-78
2021/08/19 13:56:55;;;;;;;4.80;2.67;;;24.20;91.30;;;;;;6157868;28;20037;-78
2021/08/19 13:59:55;;;;;;;3.30;2.92;;;24.10;90.70;;;;;;6158226;28;20054;-79
2021/08/19 14:02:56;;;;;;;4.00;2.93;;;24.30;90.60;;;;;;6157679;28;20049;-78
2021/08/19 14:05:56;;;;;;;3.93;2.50;;;24.40;90.80;;;;;;6175178;28;20026;-80
2021/08/19 14:08:59;;;;;;;3.10;2.80;;;24.30;91.60;;;;;;6157670;28;20033;-79
2021/08/19 14:12:00;;;;;;;3.53;2.88;;;24.20;90.50;;;;;;6175018;28;20023;-81
2021/08/19 14:15:00;;;;;;;4.83;2.73;;;24.30;90.70;;;;;;6157713;28;20019;-81
2021/08/19 14:18:01;;;;;;;5.23;3.10;;;24.20;90.40;;;;;;6157486;28;20027;-80
2021/08/19 14:21:02;;;;;;;4.10;2.87;;;24.20;90.50;;;;;;6157694;28;20093;-80
2021/08/19 14:24:03;;;;;;;4.27;2.50;;;24.10;90.60;;;;;;6157572;28;20029;-79
2021/08/19 14:27:03;;;;;;;3.80;2.47;;;24.00;90.30;;;;;;6174650;28;20361;-82
2021/08/19 14:30:06;;;;;;;2.60;2.40;;;24.00;90.70;;;;;;6178853;28;20027;-79
2021/08/19 14:33:06;;;;;;;5.22;2.42;;;23.90;91.00;;;;;;6179811;28;20110;-79
2021/08/19 14:36:07;;;;;;;4.00;2.80;;;23.90;91.20;;;;;;6179593;28;20031;-78
2021/08/19 14:39:07;;;;;;;3.33;2.83;;;23.90;90.60;;;;;;6179355;28;20082;-81
2021/08/19 14:42:08;;;;;;;3.17;2.87;;;24.00;90.40;;;;;;6180087;28;20031;-80
2021/08/19 14:45:09;;;;;;;2.70;2.50;;;24.00;90.70;;;;;;6146227;28;20030;-81
2021/08/19 14:48:10;;;;;;;6.80;3.30;;;24.10;89.90;;;;;;6161961;28;20034;-81
2021/08/19 14:51:11;;;;;;;3.23;2.87;;;24.00;90.70;;;;;;6145878;28;20294;-82
2021/08/19 14:54:12;;;;;;;3.17;2.50;;;24.10;90.10;;;;;;6179002;28;20022;-82
2021/08/19 14:57:12;;;;;;;4.17;2.63;;;24.20;89.90;;;;;;6179276;28;20027;-79
2021/08/19 15:00:13;;;;;;;2.70;2.50;;;24.20;89.30;;;;;;6179293;28;20469;-79
2021/08/19 15:03:13;;;;;;;3.30;2.80;;;24.10;85.40;;;;;;6179285;28;20138;-82
2021/08/19 15:06:14;;;;;;;3.13;2.67;;;24.10;88.40;;;;;;6161928;28;20365;-80
2021/08/19 15:09:15;;;;;;;3.00;2.70;;;23.90;96.20;;;;;;6179149;28;20109;-79
2021/08/19 15:12:15;;;;;;;3.43;2.70;;;23.60;96.00;;;;;;6178900;28;20023;-80
2021/08/19 15:15:16;;;;;;;2.50;2.30;;;23.80;96.10;;;;;;6178831;28;20033;-79
2021/08/19 15:18:17;;;;;;;5.23;2.70;;;24.00;98.20;;;;;;6178958;28;20136;-80
2021/08/19 15:21:18;;;;;;;2.57;2.33;;;;;;;;;;6161594;28;20023;-80
2021/08/19 15:24:19;;;;;;;2.97;2.57;;;;;;;;;;6178463;28;20098;-79
2021/08/19 15:27:20;;;;;;;4.07;2.60;;;22.40;93.30;;;;;;6178688;28;20468;-79
2021/08/19 15:30:21;;;;;;;2.90;2.40;;;23.80;99.90;;;;;;6178081;28;20035;-80
2021/08/19 15:33:21;;;;;;;3.70;2.30;;;23.80;99.90;;;;;;6161292;28;20054;-82
2021/08/19 15:36:22;;;;;;;3.17;2.87;;;23.60;99.90;;;;;;6161018;28;20095;-79
2021/08/19 15:39:22;;;;;;;3.23;2.60;;;23.80;94.20;;;;;;6177267;28;20062;-78
2021/08/19 15:42:24;;;;;;;4.30;2.80;;;23.80;90.00;;;;;;6178442;28;20069;-80
2021/08/19 15:45:25;;;;;;;;;;;23.80;90.70;;;;;;6161626;28;20027;-81
2021/08/19 15:48:25;;;;;;;2.88;2.58;;;23.80;90.70;;;;;;6177817;28;20469;-80
2021/08/19 15:51:26;;;;;;;3.20;2.70;;;23.80;90.10;;;;;;6178478;28;20421;-78
2021/08/19 15:54:26;;;;;;;2.70;2.50;;;23.80;90.10;;;;;;6160889;28;20029;-80